
Distance (Route):
Temperature : 25.2°C
Humidity : 70.1%
Pressure : 1018.9hPa| Receiver | Frames | First received | Last received |
|---|---|---|---|
| AUTORXJP | 257 | 2026-09-02 23:36:07 | 2026-09-03 01:51:19 |
| Receiver | Date | Latitude | Longitude | Direction | Speed | Altitude | Climb | Temperature | Humidity | Pressure | Voltage | Killtimer | Uptime | BKT | XDATA |
|---|---|---|---|---|---|---|---|---|---|---|---|---|---|---|---|
| AUTORXJP | 2026-09-03 01:51:19 | 43.07287 | 5.30597 | 148° | 27km/h | 77m | 2.5m/s | 25.2°C | 70.1% | 1018.9hPa | 0V | 00:00:00 | 00:00:00 | 00:00:00 | |
| AUTORXJP | 2026-09-03 01:50:48 | 43.07304 | 5.30577 | 138° | 27km/h | 82m | -2.1m/s | 25.1°C | 70.3% | 1017.8hPa | 0V | 00:00:00 | 00:00:00 | 00:00:00 | |
| AUTORXJP | 2026-09-03 01:50:17 | 43.07463 | 5.30278 | 132° | 38km/h | 176m | -2.5m/s | 24.4°C | 66.7% | 1006.7hPa | 0V | 00:00:00 | 00:00:00 | 00:00:00 | |
| AUTORXJP | 2026-09-03 01:49:46 | 43.07678 | 5.29986 | 148° | 35km/h | 274m | -3.6m/s | 24.1°C | 55.7% | 994.5hPa | 0V | 00:00:00 | 00:00:00 | 00:00:00 | |
| AUTORXJP | 2026-09-03 01:49:15 | 43.07898 | 5.29795 | 159° | 31km/h | 384m | -3.4m/s | 26.6°C | 38.5% | 982.2hPa | 0V | 00:00:00 | 00:00:00 | 00:00:00 | |
| AUTORXJP | 2026-09-03 01:48:44 | 43.08149 | 5.29636 | 157° | 37km/h | 498m | -4.8m/s | 27.5°C | 35.4% | 969.9hPa | 0V | 00:00:00 | 00:00:00 | 00:00:00 | |
| AUTORXJP | 2026-09-03 01:48:12 | 43.08420 | 5.29446 | 153° | 42km/h | 614m | -3.1m/s | 26.5°C | 36.8% | 957.0hPa | 0V | 00:00:00 | 00:00:00 | 00:00:00 | |
| AUTORXJP | 2026-09-03 01:47:41 | 43.08720 | 5.29321 | 154° | 44km/h | 732m | -3.6m/s | 25.6°C | 38.5% | 944.6hPa | 0V | 00:00:00 | 00:00:00 | 00:00:00 | |
| AUTORXJP | 2026-09-03 01:47:10 | 43.09028 | 5.29178 | 155° | 44km/h | 847m | -2.9m/s | 24.5°C | 41.4% | 932.2hPa | 0V | 00:00:00 | 00:00:00 | 00:00:00 | |
| AUTORXJP | 2026-09-03 01:46:39 | 43.09336 | 5.29001 | 159° | 38km/h | 963m | -2.9m/s | 23.5°C | 44.0% | 920.0hPa | 0V | 00:00:00 | 00:00:00 | 00:00:00 | |
| AUTORXJP | 2026-09-03 01:46:08 | 43.09588 | 5.28799 | 144° | 35km/h | 1073m | -4.7m/s | 22.4°C | 46.2% | 908.4hPa | 0V | 00:00:00 | 00:00:00 | 00:00:00 | |
| AUTORXJP | 2026-09-03 01:45:37 | 43.09817 | 5.28549 | 139° | 33km/h | 1184m | -3.1m/s | 21.5°C | 48.9% | 896.6hPa | 0V | 00:00:00 | 00:00:00 | 00:00:00 | |
| AUTORXJP | 2026-09-03 01:45:06 | 43.10039 | 5.28256 | 141° | 37km/h | 1300m | -2.3m/s | 20.4°C | 51.6% | 884.8hPa | 0V | 00:00:00 | 00:00:00 | 00:00:00 | |
| AUTORXJP | 2026-09-03 01:44:35 | 43.10219 | 5.27951 | 129° | 42km/h | 1411m | -2.5m/s | 19.5°C | 54.6% | 873.6hPa | 0V | 00:00:00 | 00:00:00 | 00:00:00 | |
| AUTORXJP | 2026-09-03 01:44:04 | 43.10365 | 5.27650 | 123° | 33km/h | 1515m | -3.6m/s | 18.6°C | 58.7% | 862.5hPa | 0V | 00:00:00 | 00:00:00 | 00:00:00 | |
| AUTORXJP | 2026-09-03 01:43:33 | 43.10469 | 5.27291 | 110° | 37km/h | 1625m | -3.1m/s | 18.2°C | 57.1% | 851.7hPa | 0V | 00:00:00 | 00:00:00 | 00:00:00 | |
| AUTORXJP | 2026-09-03 01:43:02 | 43.10624 | 5.26930 | 122° | 35km/h | 1730m | -2.1m/s | 18.0°C | 41.8% | 841.1hPa | 0V | 00:00:00 | 00:00:00 | 00:00:00 | |
| AUTORXJP | 2026-09-03 01:42:31 | 43.10830 | 5.26560 | 133° | 42km/h | 1842m | -3.1m/s | 17.4°C | 30.6% | 830.3hPa | 0V | 00:00:00 | 00:00:00 | 00:00:00 | |
| AUTORXJP | 2026-09-03 01:42:00 | 43.11064 | 5.26192 | 144° | 42km/h | 1956m | -1.8m/s | 17.0°C | 15.3% | 819.4hPa | 0V | 00:00:00 | 00:00:00 | 00:00:00 | |
| AUTORXJP | 2026-09-03 01:41:28 | 43.11313 | 5.25911 | 137° | 44km/h | 2073m | -3.6m/s | 16.8°C | 10.1% | 808.3hPa | 0V | 00:00:00 | 00:00:00 | 00:00:00 | |
| AUTORXJP | 2026-09-03 01:40:57 | 43.11578 | 5.25639 | 143° | 49km/h | 2189m | -4.0m/s | 16.2°C | 7.8% | 796.8hPa | 0V | 00:00:00 | 00:00:00 | 00:00:00 | |
| AUTORXJP | 2026-09-03 01:40:26 | 43.11885 | 5.25357 | 139° | 44km/h | 2319m | -1.7m/s | 16.1°C | 6.8% | 784.9hPa | 0V | 00:00:00 | 00:00:00 | 00:00:00 | |
| AUTORXJP | 2026-09-03 01:39:55 | 43.12175 | 5.25065 | 145° | 57km/h | 2445m | -3.1m/s | 15.5°C | 10.7% | 773.3hPa | 0V | 00:00:00 | 00:00:00 | 00:00:00 | |
| AUTORXJP | 2026-09-03 01:39:24 | 43.12460 | 5.24829 | 125° | 38km/h | 2570m | -4.2m/s | 14.6°C | 24.3% | 761.9hPa | 0V | 00:00:00 | 00:00:00 | 00:00:00 | |
| AUTORXJP | 2026-09-03 01:38:53 | 43.12740 | 5.24555 | 145° | 44km/h | 2696m | -2.8m/s | 13.6°C | 25.0% | 750.4hPa | 0V | 00:00:00 | 00:00:00 | 00:00:00 | |
| AUTORXJP | 2026-09-03 01:38:22 | 43.12970 | 5.24199 | 134° | 40km/h | 2820m | -3.0m/s | 12.9°C | 26.1% | 739.4hPa | 0V | 00:00:00 | 00:00:00 | 00:00:00 | |
| AUTORXJP | 2026-09-03 01:37:20 | 43.13471 | 5.23558 | 125° | 49km/h | 3070m | -4.2m/s | 11.5°C | 22.2% | 717.4hPa | 0V | 00:00:00 | 00:00:00 | 00:00:00 | |
| AUTORXJP | 2026-09-03 01:36:49 | 43.13719 | 5.23213 | 124° | 47km/h | 3201m | -4.5m/s | 11.5°C | 13.2% | 706.2hPa | 0V | 00:00:00 | 00:00:00 | 00:00:00 | |
| AUTORXJP | 2026-09-03 01:36:18 | 43.13934 | 5.22875 | 133° | 37km/h | 3333m | -2.7m/s | 10.8°C | 7.7% | 694.9hPa | 0V | 00:00:00 | 00:00:00 | 00:00:00 | |
| AUTORXJP | 2026-09-03 01:35:47 | 43.14126 | 5.22557 | 117° | 38km/h | 3474m | -4.4m/s | 10.6°C | 5.9% | 683.5hPa | 0V | 00:00:00 | 00:00:00 | 00:00:00 | |
| AUTORXJP | 2026-09-03 01:35:15 | 43.14333 | 5.22232 | 139° | 33km/h | 3615m | -5.3m/s | 10.3°C | 7.4% | 671.8hPa | 0V | 00:00:00 | 00:00:00 | 00:00:00 | |
| AUTORXJP | 2026-09-03 01:34:44 | 43.14520 | 5.21919 | 122° | 35km/h | 3764m | -3.7m/s | 9.5°C | 6.5% | 659.7hPa | 0V | 00:00:00 | 00:00:00 | 00:00:00 | |
| AUTORXJP | 2026-09-03 01:34:13 | 43.14690 | 5.21564 | 117° | 37km/h | 3915m | -3.6m/s | 8.7°C | 27.3% | 647.9hPa | 0V | 00:00:00 | 00:00:00 | 00:00:00 | |
| AUTORXJP | 2026-09-03 01:33:42 | 43.14784 | 5.21195 | 109° | 42km/h | 4066m | -3.0m/s | 7.1°C | 39.7% | 636.0hPa | 0V | 00:00:00 | 00:00:00 | 00:00:00 | |
| AUTORXJP | 2026-09-03 01:33:11 | 43.14909 | 5.20778 | 118° | 42km/h | 4216m | -3.8m/s | 5.7°C | 41.9% | 624.1hPa | 0V | 00:00:00 | 00:00:00 | 00:00:00 | |
| AUTORXJP | 2026-09-03 01:32:40 | 43.15073 | 5.20457 | 122° | 24km/h | 4370m | -4.7m/s | 4.3°C | 44.1% | 612.3hPa | 0V | 00:00:00 | 00:00:00 | 00:00:00 | |
| AUTORXJP | 2026-09-03 01:32:09 | 43.15174 | 5.20187 | 126° | 31km/h | 4528m | -5.5m/s | 3.1°C | 45.5% | 600.5hPa | 0V | 00:00:00 | 00:00:00 | 00:00:00 | |
| AUTORXJP | 2026-09-03 01:31:38 | 43.15366 | 5.19867 | 121° | 44km/h | 4696m | -4.0m/s | 1.8°C | 45.8% | 588.5hPa | 0V | 00:00:00 | 00:00:00 | 00:00:00 | |
| AUTORXJP | 2026-09-03 01:31:07 | 43.15526 | 5.19483 | 110° | 27km/h | 4857m | -5.4m/s | 0.5°C | 43.2% | 576.7hPa | 0V | 00:00:00 | 00:00:00 | 00:00:00 | |
| AUTORXJP | 2026-09-03 01:30:36 | 43.15705 | 5.19130 | 115° | 38km/h | 5020m | -3.8m/s | -0.8°C | 45.7% | 564.9hPa | 0V | 00:00:00 | 00:00:00 | 00:00:00 | |
| AUTORXJP | 2026-09-03 01:30:05 | 43.15893 | 5.18831 | 141° | 46km/h | 5187m | -4.6m/s | -2.0°C | 59.0% | 553.0hPa | 0V | 00:00:00 | 00:00:00 | 00:00:00 | |
| AUTORXJP | 2026-09-03 01:29:34 | 43.16138 | 5.18412 | 123° | 49km/h | 5355m | -5.1m/s | -3.4°C | 57.7% | 541.4hPa | 0V | 00:00:00 | 00:00:00 | 00:00:00 | |
| AUTORXJP | 2026-09-03 01:29:02 | 43.16290 | 5.18008 | 117° | 38km/h | 5521m | -4.0m/s | -4.5°C | 64.6% | 530.0hPa | 0V | 00:00:00 | 00:00:00 | 00:00:00 | |
| AUTORXJP | 2026-09-03 01:28:31 | 43.16435 | 5.17644 | 125° | 37km/h | 5685m | -4.7m/s | -5.1°C | 58.7% | 519.1hPa | 0V | 00:00:00 | 00:00:00 | 00:00:00 | |
| AUTORXJP | 2026-09-03 01:28:00 | 43.16582 | 5.17274 | 109° | 49km/h | 5844m | -4.9m/s | -6.5°C | 59.3% | 508.5hPa | 0V | 00:00:00 | 00:00:00 | 00:00:00 | |
| AUTORXJP | 2026-09-03 01:27:29 | 43.16794 | 5.16837 | 119° | 53km/h | 6005m | -5.5m/s | -7.8°C | 56.9% | 497.9hPa | 0V | 00:00:00 | 00:00:00 | 00:00:00 | |
| AUTORXJP | 2026-09-03 01:26:58 | 43.17006 | 5.16407 | 112° | 47km/h | 6163m | -5.2m/s | -8.9°C | 57.8% | 487.9hPa | 0V | 00:00:00 | 00:00:00 | 00:00:00 | |
| AUTORXJP | 2026-09-03 01:26:27 | 43.17205 | 5.15914 | 116° | 44km/h | 6315m | -4.3m/s | -10.0°C | 53.2% | 478.3hPa | 0V | 00:00:00 | 00:00:00 | 00:00:00 | |
| AUTORXJP | 2026-09-03 01:25:56 | 43.17399 | 5.15397 | 122° | 46km/h | 6471m | -3.8m/s | -11.2°C | 54.0% | 468.9hPa | 0V | 00:00:00 | 00:00:00 | 00:00:00 | |
| AUTORXJP | 2026-09-03 01:25:25 | 43.17558 | 5.14934 | 120° | 58km/h | 6619m | -4.1m/s | -12.4°C | 44.9% | 459.8hPa | 0V | 00:00:00 | 00:00:00 | 00:00:00 | |
| AUTORXJP | 2026-09-03 01:24:54 | 43.17815 | 5.14484 | 132° | 60km/h | 6764m | -2.8m/s | -12.9°C | 22.9% | 451.1hPa | 0V | 00:00:00 | 00:00:00 | 00:00:00 | |
| AUTORXJP | 2026-09-03 01:24:23 | 43.18089 | 5.14072 | 138° | 55km/h | 6908m | -4.0m/s | -13.6°C | 31.8% | 442.4hPa | 0V | 00:00:00 | 00:00:00 | 00:00:00 | |
| AUTORXJP | 2026-09-03 01:23:52 | 43.18308 | 5.13664 | 116° | 49km/h | 7063m | -4.2m/s | -14.8°C | 42.8% | 433.6hPa | 0V | 00:00:00 | 00:00:00 | 00:00:00 | |
| AUTORXJP | 2026-09-03 01:23:21 | 43.18603 | 5.13272 | 135° | 44km/h | 7210m | -4.0m/s | -16.1°C | 42.0% | 424.9hPa | 0V | 00:00:00 | 00:00:00 | 00:00:00 | |
| AUTORXJP | 2026-09-03 01:22:49 | 43.18900 | 5.12858 | 148° | 58km/h | 7365m | -4.7m/s | -17.3°C | 39.0% | 416.3hPa | 0V | 00:00:00 | 00:00:00 | 00:00:00 | |
| AUTORXJP | 2026-09-03 01:22:18 | 43.19216 | 5.12519 | 148° | 57km/h | 7522m | -4.5m/s | -18.6°C | 36.8% | 407.6hPa | 0V | 00:00:00 | 00:00:00 | 00:00:00 | |
| AUTORXJP | 2026-09-03 01:21:47 | 43.19541 | 5.12215 | 133° | 55km/h | 7681m | -5.2m/s | -19.8°C | 37.8% | 398.9hPa | 0V | 00:00:00 | 00:00:00 | 00:00:00 | |
| AUTORXJP | 2026-09-03 01:21:16 | 43.19916 | 5.11809 | 145° | 53km/h | 7842m | -5.1m/s | -21.0°C | 39.2% | 390.2hPa | 0V | 00:00:00 | 00:00:00 | 00:00:00 | |
| AUTORXJP | 2026-09-03 01:20:45 | 43.20292 | 5.11328 | 139° | 73km/h | 8014m | -4.0m/s | -22.2°C | 37.4% | 381.2hPa | 0V | 00:00:00 | 00:00:00 | 00:00:00 | |
| AUTORXJP | 2026-09-03 01:20:14 | 43.20676 | 5.10876 | 129° | 51km/h | 8183m | -5.4m/s | -23.8°C | 41.5% | 372.4hPa | 0V | 00:00:00 | 00:00:00 | 00:00:00 | |
| AUTORXJP | 2026-09-03 01:19:43 | 43.20936 | 5.10412 | 126° | 60km/h | 8357m | -2.9m/s | -25.3°C | 41.4% | 363.6hPa | 0V | 00:00:00 | 00:00:00 | 00:00:00 | |
| AUTORXJP | 2026-09-03 01:19:12 | 43.21289 | 5.09975 | 142° | 51km/h | 8533m | -5.8m/s | -26.6°C | 43.5% | 354.7hPa | 0V | 00:00:00 | 00:00:00 | 00:00:00 | |
| AUTORXJP | 2026-09-03 01:18:41 | 43.21620 | 5.09635 | 139° | 53km/h | 8718m | -4.3m/s | -27.6°C | 40.6% | 345.7hPa | 0V | 00:00:00 | 00:00:00 | 00:00:00 | |
| AUTORXJP | 2026-09-03 01:18:10 | 43.21977 | 5.09157 | 137° | 77km/h | 8902m | -5.0m/s | -29.1°C | 40.4% | 336.8hPa | 0V | 00:00:00 | 00:00:00 | 00:00:00 | |
| AUTORXJP | 2026-09-03 01:17:08 | 43.22961 | 5.08134 | 146° | 86km/h | 9289m | -5.5m/s | -32.6°C | 45.0% | 318.8hPa | 0V | 00:00:00 | 00:00:00 | 00:00:00 | |
| AUTORXJP | 2026-09-03 01:16:37 | 43.23509 | 5.07597 | 148° | 82km/h | 9484m | -6.5m/s | -34.4°C | 50.5% | 310.0hPa | 0V | 00:00:00 | 00:00:00 | 00:00:00 | |
| AUTORXJP | 2026-09-03 01:16:06 | 43.23971 | 5.07098 | 134° | 77km/h | 9682m | -5.7m/s | -36.4°C | 54.5% | 301.3hPa | 0V | 00:00:00 | 00:00:00 | 00:00:00 | |
| AUTORXJP | 2026-09-03 01:15:35 | 43.24451 | 5.06562 | 150° | 78km/h | 9881m | -5.3m/s | -38.0°C | 49.8% | 292.6hPa | 0V | 00:00:00 | 00:00:00 | 00:00:00 | |
| AUTORXJP | 2026-09-03 01:15:03 | 43.24908 | 5.06091 | 146° | 84km/h | 10087m | -5.5m/s | -39.6°C | 57.1% | 284.0hPa | 0V | 00:00:00 | 00:00:00 | 00:00:00 | |
| AUTORXJP | 2026-09-03 01:14:32 | 43.25427 | 5.05581 | 140° | 82km/h | 10292m | -6.2m/s | -41.0°C | 67.2% | 275.4hPa | 0V | 00:00:00 | 00:00:00 | 00:00:00 | |
| AUTORXJP | 2026-09-03 01:14:01 | 43.26007 | 5.05109 | 145° | 99km/h | 10491m | -5.5m/s | -42.3°C | 72.6% | 267.3hPa | 0V | 00:00:00 | 00:00:00 | 00:00:00 | |
| AUTORXJP | 2026-09-03 01:13:30 | 43.26599 | 5.04650 | 148° | 95km/h | 10696m | -5.7m/s | -44.2°C | 70.9% | 259.4hPa | 0V | 00:00:00 | 00:00:00 | 00:00:00 | |
| AUTORXJP | 2026-09-03 01:12:59 | 43.27234 | 5.04237 | 151° | 82km/h | 10901m | -5.4m/s | -45.9°C | 72.6% | 251.4hPa | 0V | 00:00:00 | 00:00:00 | 00:00:00 | |
| AUTORXJP | 2026-09-03 01:12:28 | 43.27912 | 5.03768 | 144° | 99km/h | 11109m | -4.9m/s | -47.6°C | 68.5% | 243.6hPa | 0V | 00:00:00 | 00:00:00 | 00:00:00 | |
| AUTORXJP | 2026-09-03 01:11:57 | 43.28625 | 5.03266 | 152° | 113km/h | 11323m | -6.2m/s | -49.4°C | 65.1% | 235.7hPa | 0V | 00:00:00 | 00:00:00 | 00:00:00 | |
| AUTORXJP | 2026-09-03 01:11:26 | 43.29367 | 5.02757 | 159° | 104km/h | 11550m | -7.1m/s | -51.4°C | 61.2% | 227.6hPa | 0V | 00:00:00 | 00:00:00 | 00:00:00 | |
| AUTORXJP | 2026-09-03 01:10:55 | 43.30107 | 5.02268 | 146° | 91km/h | 11783m | -6.4m/s | -53.2°C | 54.4% | 219.4hPa | 0V | 00:00:00 | 00:00:00 | 00:00:00 | |
| AUTORXJP | 2026-09-03 01:10:24 | 43.30831 | 5.01798 | 148° | 102km/h | 12025m | -7.8m/s | -54.7°C | 48.5% | 211.2hPa | 0V | 00:00:00 | 00:00:00 | 00:00:00 | |
| AUTORXJP | 2026-09-03 01:09:53 | 43.31585 | 5.01357 | 161° | 95km/h | 12279m | -7.6m/s | -56.4°C | 45.9% | 203.0hPa | 0V | 00:00:00 | 00:00:00 | 00:00:00 | |
| AUTORXJP | 2026-09-03 01:09:22 | 43.32328 | 5.00948 | 164° | 102km/h | 12532m | -7.3m/s | -58.4°C | 40.6% | 194.9hPa | 0V | 00:00:00 | 00:00:00 | 00:00:00 | |
| AUTORXJP | 2026-09-03 01:08:51 | 43.33065 | 5.00546 | 159° | 111km/h | 12787m | -8.4m/s | -60.0°C | 34.5% | 186.9hPa | 0V | 00:00:00 | 00:00:00 | 00:00:00 | |
| AUTORXJP | 2026-09-03 01:08:19 | 43.33713 | 5.00147 | 149° | 100km/h | 13041m | -7.3m/s | -60.7°C | 27.9% | 179.4hPa | 0V | 00:00:00 | 00:00:00 | 00:00:00 | |
| AUTORXJP | 2026-09-03 01:07:49 | 43.34276 | 4.99713 | 145° | 88km/h | 13304m | -8.1m/s | -61.5°C | 21.5% | 171.9hPa | 0V | 00:00:00 | 00:00:00 | 00:00:00 | |
| AUTORXJP | 2026-09-03 01:07:17 | 43.34804 | 4.99267 | 137° | 82km/h | 13561m | -6.6m/s | -61.8°C | 16.1% | 164.8hPa | 0V | 00:00:00 | 00:00:00 | 00:00:00 | |
| AUTORXJP | 2026-09-03 01:06:46 | 43.35298 | 4.98777 | 129° | 80km/h | 13819m | -7.5m/s | -62.1°C | 11.6% | 158.0hPa | 0V | 00:00:00 | 00:00:00 | 00:00:00 | |
| AUTORXJP | 2026-09-03 01:06:15 | 43.35718 | 4.98290 | 134° | 47km/h | 14076m | -6.6m/s | -61.9°C | 7.6% | 151.5hPa | 0V | 00:00:00 | 00:00:00 | 00:00:00 | |
| AUTORXJP | 2026-09-03 01:05:44 | 43.36052 | 4.97693 | 135° | 66km/h | 14330m | -7.1m/s | -61.8°C | 5.3% | 145.2hPa | 0V | 00:00:00 | 00:00:00 | 00:00:00 | |
| AUTORXJP | 2026-09-03 01:05:13 | 43.36489 | 4.97128 | 151° | 64km/h | 14585m | -7.3m/s | -60.6°C | 4.3% | 139.3hPa | 0V | 00:00:00 | 00:00:00 | 00:00:00 | |
| AUTORXJP | 2026-09-03 01:04:42 | 43.36777 | 4.96769 | 132° | 55km/h | 14854m | -8.2m/s | -61.6°C | 3.2% | 133.3hPa | 0V | 00:00:00 | 00:00:00 | 00:00:00 | |
| AUTORXJP | 2026-09-03 01:04:11 | 43.36905 | 4.96316 | 90° | 64km/h | 15139m | -9.1m/s | -62.6°C | 2.1% | 127.2hPa | 0V | 00:00:00 | 00:00:00 | 00:00:00 | |
| AUTORXJP | 2026-09-03 01:03:40 | 43.37134 | 4.95734 | 144° | 69km/h | 15441m | -9.0m/s | -62.1°C | 1.5% | 121.1hPa | 0V | 00:00:00 | 00:00:00 | 00:00:00 | |
| AUTORXJP | 2026-09-03 01:03:09 | 43.37399 | 4.95387 | 130° | 62km/h | 15759m | -9.0m/s | -62.0°C | 1.1% | 114.9hPa | 0V | 00:00:00 | 00:00:00 | 00:00:00 | |
| AUTORXJP | 2026-09-03 01:02:37 | 43.37599 | 4.95014 | 124° | 62km/h | 16091m | -10.8m/s | -62.1°C | 0.8% | 108.8hPa | 0V | 00:00:00 | 00:00:00 | 00:00:00 | |
| AUTORXJP | 2026-09-03 01:02:07 | 43.37855 | 4.94464 | 141° | 73km/h | 16446m | -10.8m/s | -59.4°C | 0.7% | 102.7hPa | 0V | 00:00:00 | 00:00:00 | 00:00:00 | |
| AUTORXJP | 2026-09-03 01:01:35 | 43.38063 | 4.94076 | 125° | 53km/h | 16793m | -10.5m/s | -59.7°C | 0.3% | 97.0hPa | 0V | 00:00:00 | 00:00:00 | 00:00:00 | |
| AUTORXJP | 2026-09-03 01:01:04 | 43.38278 | 4.93744 | 154° | 33km/h | 17173m | -10.6m/s | -59.7°C | 0.1% | 91.2hPa | 0V | 00:00:00 | 00:00:00 | 00:00:00 | |
| AUTORXJP | 2026-09-03 01:00:33 | 43.38408 | 4.93450 | 120° | 35km/h | 17575m | -13.8m/s | -60.0°C | 0.0% | 85.3hPa | 0V | 00:00:00 | 00:00:00 | 00:00:00 | |
| AUTORXJP | 2026-09-03 01:00:02 | 43.38570 | 4.93090 | 147° | 26km/h | 18021m | -13.0m/s | -57.5°C | 0.0% | 79.3hPa | 0V | 00:00:00 | 00:00:00 | 00:00:00 | |
| AUTORXJP | 2026-09-03 00:59:31 | 43.38640 | 4.92928 | 102° | 24km/h | 18481m | -12.0m/s | -59.5°C | 0.0% | 73.6hPa | 0V | 00:00:00 | 00:00:00 | 00:00:00 | |
| AUTORXJP | 2026-09-03 00:59:00 | 43.38692 | 4.92649 | 107° | 29km/h | 19023m | -14.1m/s | -57.5°C | 0.0% | 67.4hPa | 0V | 00:00:00 | 00:00:00 | 00:00:00 | |
| AUTORXJP | 2026-09-03 00:58:29 | 43.38690 | 4.92363 | 89° | 24km/h | 19478m | -13.6m/s | -56.4°C | 0.0% | 62.6hPa | 0V | 00:00:00 | 00:00:00 | 00:00:00 | |
| AUTORXJP | 2026-09-03 00:57:58 | 43.38769 | 4.92170 | 174° | 13km/h | 19912m | -12.2m/s | -56.5°C | 0.0% | 58.3hPa | 0V | 00:00:00 | 00:00:00 | 00:00:00 | |
| AUTORXJP | 2026-09-03 00:57:27 | 43.38800 | 4.92155 | 104° | 9km/h | 20389m | -15.9m/s | -58.2°C | 0.0% | 53.9hPa | 0V | 00:00:00 | 00:00:00 | 00:00:00 | |
| AUTORXJP | 2026-09-03 00:56:56 | 43.38940 | 4.91989 | 144° | 26km/h | 20939m | -16.4m/s | -57.9°C | 0.0% | 49.2hPa | 0V | 00:00:00 | 00:00:00 | 00:00:00 | |
| AUTORXJP | 2026-09-03 00:56:24 | 43.39063 | 4.91803 | 172° | 16km/h | 21487m | -18.2m/s | -54.5°C | 0.0% | 44.9hPa | 0V | 00:00:00 | 00:00:00 | 00:00:00 | |
| AUTORXJP | 2026-09-03 00:55:53 | 43.39149 | 4.91768 | 179° | 9km/h | 22108m | -19.4m/s | -54.2°C | 0.0% | 40.6hPa | 0V | 00:00:00 | 00:00:00 | 00:00:00 | |
| AUTORXJP | 2026-09-03 00:55:22 | 43.39240 | 4.91935 | 257° | 22km/h | 22711m | -18.3m/s | -54.7°C | 0.0% | 36.8hPa | 0V | 00:00:00 | 00:00:00 | 00:00:00 | |
| AUTORXJP | 2026-09-03 00:54:51 | 43.39238 | 4.91981 | 139° | 7km/h | 23304m | -19.8m/s | -52.2°C | 0.0% | 33.4hPa | 0V | 00:00:00 | 00:00:00 | 00:00:00 | |
| AUTORXJP | 2026-09-03 00:54:20 | 43.39320 | 4.92117 | 295° | 18km/h | 23918m | -19.0m/s | -53.8°C | 0.0% | 30.1hPa | 0V | 00:00:00 | 00:00:00 | 00:00:00 | |
| AUTORXJP | 2026-09-03 00:53:49 | 43.39327 | 4.92226 | 268° | 20km/h | 24519m | -18.4m/s | -52.8°C | 0.0% | 27.3hPa | 0V | 00:00:00 | 00:00:00 | 00:00:00 | |
| AUTORXJP | 2026-09-03 00:53:18 | 43.39292 | 4.92321 | 333° | 5km/h | 25176m | -18.7m/s | -50.3°C | 0.0% | 24.4hPa | 0V | 00:00:00 | 00:00:00 | 00:00:00 | |
| AUTORXJP | 2026-09-03 00:52:47 | 43.39240 | 4.92391 | 0° | 5km/h | 25882m | -27.4m/s | -49.7°C | 0.0% | 21.7hPa | 0V | 00:00:00 | 00:00:00 | 00:00:00 | |
| AUTORXJP | 2026-09-03 00:52:16 | 43.39195 | 4.92479 | 324° | 11km/h | 26583m | -28.7m/s | -48.0°C | 0.0% | 19.3hPa | 0V | 00:00:00 | 00:00:00 | 00:00:00 | |
| AUTORXJP | 2026-09-03 00:51:45 | 43.39133 | 4.92480 | 231° | 2km/h | 27333m | -25.9m/s | -46.1°C | 0.0% | 17.0hPa | 0V | 00:00:00 | 00:00:00 | 00:00:00 | |
| AUTORXJP | 2026-09-03 00:51:14 | 43.39164 | 4.92527 | 308° | 7km/h | 27683m | 7.3m/s | -46.8°C | 0.0% | 16.0hPa | 0V | 00:00:00 | 00:00:00 | 00:00:00 | |
| AUTORXJP | 2026-09-03 00:50:42 | 43.39255 | 4.92530 | 262° | 7km/h | 27509m | 6.1m/s | -46.7°C | 0.0% | 16.5hPa | 0V | 00:00:00 | 00:00:00 | 00:00:00 | |
| AUTORXJP | 2026-09-03 00:50:11 | 43.39307 | 4.92497 | 191° | 5km/h | 27334m | 4.5m/s | -46.3°C | 0.0% | 17.0hPa | 0V | 00:00:00 | 00:00:00 | 00:00:00 | |
| AUTORXJP | 2026-09-03 00:49:40 | 43.39287 | 4.92483 | 155° | 13km/h | 27155m | 5.8m/s | -47.0°C | 0.0% | 17.5hPa | 0V | 00:00:00 | 00:00:00 | 00:00:00 | |
| AUTORXJP | 2026-09-03 00:49:09 | 43.39239 | 4.92396 | 84° | 13km/h | 26964m | 7.0m/s | -46.8°C | 0.0% | 18.1hPa | 0V | 00:00:00 | 00:00:00 | 00:00:00 | |
| AUTORXJP | 2026-09-03 00:48:38 | 43.39124 | 4.92387 | 340° | 16km/h | 26784m | 7.2m/s | -47.6°C | 0.0% | 18.6hPa | 0V | 00:00:00 | 00:00:00 | 00:00:00 | |
| AUTORXJP | 2026-09-03 00:48:07 | 43.39021 | 4.92445 | 341° | 7km/h | 26599m | 6.9m/s | -48.1°C | 0.0% | 19.2hPa | 0V | 00:00:00 | 00:00:00 | 00:00:00 | |
| AUTORXJP | 2026-09-03 00:47:36 | 43.38993 | 4.92514 | 286° | 11km/h | 26426m | 5.6m/s | -48.5°C | 0.0% | 19.8hPa | 0V | 00:00:00 | 00:00:00 | 00:00:00 | |
| AUTORXJP | 2026-09-03 00:47:05 | 43.38967 | 4.92623 | 259° | 18km/h | 26250m | 4.5m/s | -48.6°C | 0.0% | 20.4hPa | 0V | 00:00:00 | 00:00:00 | 00:00:00 | |
| AUTORXJP | 2026-09-03 00:46:34 | 43.38884 | 4.92734 | 323° | 5km/h | 26078m | 6.0m/s | -49.4°C | 0.0% | 21.0hPa | 0V | 00:00:00 | 00:00:00 | 00:00:00 | |
| AUTORXJP | 2026-09-03 00:46:03 | 43.38843 | 4.92757 | 339° | 15km/h | 25905m | 5.2m/s | -49.8°C | 0.1% | 21.6hPa | 0V | 00:00:00 | 00:00:00 | 00:00:00 | |
| AUTORXJP | 2026-09-03 00:45:32 | 43.38701 | 4.92757 | 316° | 15km/h | 25732m | 5.9m/s | -49.6°C | 0.2% | 22.3hPa | 0V | 00:00:00 | 00:00:00 | 00:00:00 | |
| AUTORXJP | 2026-09-03 00:45:01 | 43.38600 | 4.92882 | 325° | 24km/h | 25560m | 5.0m/s | -49.8°C | 0.2% | 22.9hPa | 0V | 00:00:00 | 00:00:00 | 00:00:00 | |
| AUTORXJP | 2026-09-03 00:44:29 | 43.38604 | 4.93020 | 267° | 22km/h | 25385m | 7.7m/s | -49.8°C | 0.2% | 23.6hPa | 0V | 00:00:00 | 00:00:00 | 00:00:00 | |
| AUTORXJP | 2026-09-03 00:43:58 | 43.38620 | 4.93092 | 300° | 13km/h | 25210m | 6.4m/s | -50.2°C | 0.2% | 24.3hPa | 0V | 00:00:00 | 00:00:00 | 00:00:00 | |
| AUTORXJP | 2026-09-03 00:43:28 | 43.38574 | 4.93146 | 323° | 11km/h | 25041m | 6.1m/s | -51.7°C | 0.2% | 25.0hPa | 0V | 00:00:00 | 00:00:00 | 00:00:00 | |
| AUTORXJP | 2026-09-03 00:42:56 | 43.38556 | 4.93247 | 219° | 5km/h | 24875m | 4.7m/s | -51.9°C | 0.2% | 25.7hPa | 0V | 00:00:00 | 00:00:00 | 00:00:00 | |
| AUTORXJP | 2026-09-03 00:42:25 | 43.38589 | 4.93359 | 270° | 16km/h | 24703m | 7.1m/s | -53.1°C | 0.2% | 26.4hPa | 0V | 00:00:00 | 00:00:00 | 00:00:00 | |
| AUTORXJP | 2026-09-03 00:41:54 | 43.38637 | 4.93584 | 221° | 22km/h | 24532m | 6.0m/s | -53.4°C | 0% | 27.2hPa | 0V | 00:00:00 | 00:00:00 | 00:00:00 | |
| AUTORXJP | 2026-09-03 00:41:23 | 43.38709 | 4.93656 | 193° | 18km/h | 24366m | 4.5m/s | -54.4°C | 0.3% | 27.9hPa | 0V | 00:00:00 | 00:00:00 | 00:00:00 | |
| AUTORXJP | 2026-09-03 00:40:52 | 43.38697 | 4.93776 | 252° | 20km/h | 24195m | 5.6m/s | -53.8°C | 0.3% | 28.8hPa | 0V | 00:00:00 | 00:00:00 | 00:00:00 | |
| AUTORXJP | 2026-09-03 00:40:21 | 43.38658 | 4.93961 | 281° | 24km/h | 24021m | 3.7m/s | -53.7°C | 0.4% | 29.6hPa | 0V | 00:00:00 | 00:00:00 | 00:00:00 | |
| AUTORXJP | 2026-09-03 00:39:50 | 43.38608 | 4.94135 | 255° | 20km/h | 23848m | 5.4m/s | -53.4°C | 0.5% | 30.5hPa | 0V | 00:00:00 | 00:00:00 | 00:00:00 | |
| AUTORXJP | 2026-09-03 00:39:19 | 43.38666 | 4.94361 | 211° | 24km/h | 23681m | 4.8m/s | -53.4°C | 0.6% | 31.3hPa | 0V | 00:00:00 | 00:00:00 | 00:00:00 | |
| AUTORXJP | 2026-09-03 00:38:48 | 43.38770 | 4.94470 | 167° | 26km/h | 23512m | 6.0m/s | -53.1°C | 0.6% | 32.2hPa | 0V | 00:00:00 | 00:00:00 | 00:00:00 | |
| AUTORXJP | 2026-09-03 00:38:17 | 43.38864 | 4.94425 | 130° | 15km/h | 23346m | 4.8m/s | -52.6°C | 0.6% | 33.1hPa | 0V | 00:00:00 | 00:00:00 | 00:00:00 | |
| AUTORXJP | 2026-09-03 00:37:46 | 43.38849 | 4.94330 | 89° | 15km/h | 23175m | 4.3m/s | -53.4°C | 0.6% | 34.1hPa | 0V | 00:00:00 | 00:00:00 | 00:00:00 | |
| AUTORXJP | 2026-09-03 00:37:15 | 43.38780 | 4.94336 | 284° | 13km/h | 23006m | 5.4m/s | -55.0°C | 0.6% | 35.0hPa | 0V | 00:00:00 | 00:00:00 | 00:00:00 | |
| AUTORXJP | 2026-09-03 00:36:43 | 43.38747 | 4.94526 | 263° | 20km/h | 22837m | 4.4m/s | -55.3°C | 0.8% | 36.0hPa | 0V | 00:00:00 | 00:00:00 | 00:00:00 | |
| AUTORXJP | 2026-09-03 00:36:12 | 43.38789 | 4.94729 | 254° | 16km/h | 22660m | 6.1m/s | -54.7°C | 0.9% | 37.1hPa | 0V | 00:00:00 | 00:00:00 | 00:00:00 | |
| AUTORXJP | 2026-09-03 00:35:41 | 43.38869 | 4.94934 | 248° | 29km/h | 22485m | 5.5m/s | -54.1°C | 0.9% | 38.2hPa | 0V | 00:00:00 | 00:00:00 | 00:00:00 | |
| AUTORXJP | 2026-09-03 00:35:10 | 43.39037 | 4.95086 | 196° | 22km/h | 22314m | 3.2m/s | -54.5°C | 1.0% | 39.3hPa | 0V | 00:00:00 | 00:00:00 | 00:00:00 | |
| AUTORXJP | 2026-09-03 00:34:39 | 43.39116 | 4.95100 | 161° | 2km/h | 22153m | 5.2m/s | -54.4°C | 1.1% | 40.3hPa | 0V | 00:00:00 | 00:00:00 | 00:00:00 | |
| AUTORXJP | 2026-09-03 00:34:09 | 43.39205 | 4.95085 | 126° | 9km/h | 21996m | 4.0m/s | -54.9°C | 1.1% | 41.4hPa | 0V | 00:00:00 | 00:00:00 | 00:00:00 | |
| AUTORXJP | 2026-09-03 00:33:37 | 43.39243 | 4.95003 | 56° | 16km/h | 21843m | 5.6m/s | -55.5°C | 1.3% | 42.5hPa | 0V | 00:00:00 | 00:00:00 | 00:00:00 | |
| AUTORXJP | 2026-09-03 00:33:06 | 43.39225 | 4.94960 | 116° | 4km/h | 21684m | 7.7m/s | -54.7°C | 1.4% | 43.6hPa | 0V | 00:00:00 | 00:00:00 | 00:00:00 | |
| AUTORXJP | 2026-09-03 00:32:35 | 43.39306 | 4.94979 | 218° | 4km/h | 21517m | 3.9m/s | -54.4°C | 1.4% | 44.8hPa | 0V | 00:00:00 | 00:00:00 | 00:00:00 | |
| AUTORXJP | 2026-09-03 00:32:04 | 43.39458 | 4.94857 | 132° | 29km/h | 21350m | 5.8m/s | -55.9°C | 1.3% | 46.0hPa | 0V | 00:00:00 | 00:00:00 | 00:00:00 | |
| AUTORXJP | 2026-09-03 00:31:33 | 43.39583 | 4.94618 | 125° | 16km/h | 21191m | 4.4m/s | -56.8°C | 1.2% | 47.2hPa | 0V | 00:00:00 | 00:00:00 | 00:00:00 | |
| AUTORXJP | 2026-09-03 00:31:01 | 43.39690 | 4.94449 | 120° | 22km/h | 21037m | 5.5m/s | -57.7°C | 1.2% | 48.4hPa | 0V | 00:00:00 | 00:00:00 | 00:00:00 | |
| AUTORXJP | 2026-09-03 00:30:31 | 43.39837 | 4.94276 | 122° | 15km/h | 20881m | 4.2m/s | -58.4°C | 1.2% | 49.7hPa | 0V | 00:00:00 | 00:00:00 | 00:00:00 | |
| AUTORXJP | 2026-09-03 00:29:59 | 43.39971 | 4.94151 | 163° | 20km/h | 20722m | 6.3m/s | -58.2°C | 1.3% | 51.0hPa | 0V | 00:00:00 | 00:00:00 | 00:00:00 | |
| AUTORXJP | 2026-09-03 00:29:28 | 43.40137 | 4.94034 | 114° | 29km/h | 20556m | 6.2m/s | -58.4°C | 0% | 52.5hPa | 0V | 00:00:00 | 00:00:00 | 00:00:00 | |
| AUTORXJP | 2026-09-03 00:28:57 | 43.40234 | 4.93823 | 118° | 13km/h | 20393m | 5.7m/s | -58.1°C | 1.5% | 53.9hPa | 0V | 00:00:00 | 00:00:00 | 00:00:00 | |
| AUTORXJP | 2026-09-03 00:28:26 | 43.40225 | 4.93743 | 318° | 9km/h | 20238m | 4.8m/s | -57.3°C | 1.7% | 55.3hPa | 0V | 00:00:00 | 00:00:00 | 00:00:00 | |
| AUTORXJP | 2026-09-03 00:27:55 | 43.40212 | 4.93765 | 250° | 13km/h | 20084m | 4.5m/s | -56.8°C | 1.9% | 56.7hPa | 0V | 00:00:00 | 00:00:00 | 00:00:00 | |
| AUTORXJP | 2026-09-03 00:27:24 | 43.40245 | 4.93806 | 156° | 15km/h | 19924m | 5.0m/s | -56.0°C | 2.0% | 58.2hPa | 0V | 00:00:00 | 00:00:00 | 00:00:00 | |
| AUTORXJP | 2026-09-03 00:26:53 | 43.40379 | 4.93669 | 139° | 40km/h | 19759m | 6.4m/s | -56.8°C | 2.1% | 59.8hPa | 0V | 00:00:00 | 00:00:00 | 00:00:00 | |
| AUTORXJP | 2026-09-03 00:26:22 | 43.40509 | 4.93377 | 119° | 38km/h | 19601m | 6.0m/s | -56.9°C | 2.3% | 61.4hPa | 0V | 00:00:00 | 00:00:00 | 00:00:00 | |
| AUTORXJP | 2026-09-03 00:25:51 | 43.40572 | 4.93045 | 99° | 33km/h | 19451m | 3.7m/s | -57.7°C | 2.4% | 62.9hPa | 0V | 00:00:00 | 00:00:00 | 00:00:00 | |
| AUTORXJP | 2026-09-03 00:25:20 | 43.40554 | 4.92729 | 94° | 33km/h | 19295m | 5.3m/s | -56.8°C | 2.4% | 64.5hPa | 0V | 00:00:00 | 00:00:00 | 00:00:00 | |
| AUTORXJP | 2026-09-03 00:24:48 | 43.40557 | 4.92391 | 90° | 24km/h | 19145m | 4.7m/s | -57.9°C | 2.5% | 66.1hPa | 0V | 00:00:00 | 00:00:00 | 00:00:00 | |
| AUTORXJP | 2026-09-03 00:24:17 | 43.40560 | 4.92089 | 86° | 26km/h | 18988m | 5.6m/s | -58.7°C | 2.5% | 67.8hPa | 0V | 00:00:00 | 00:00:00 | 00:00:00 | |
| AUTORXJP | 2026-09-03 00:23:46 | 43.40593 | 4.91841 | 125° | 24km/h | 18831m | 6.1m/s | -59.2°C | 2.7% | 69.6hPa | 0V | 00:00:00 | 00:00:00 | 00:00:00 | |
| AUTORXJP | 2026-09-03 00:23:15 | 43.40637 | 4.91632 | 127° | 13km/h | 18676m | 4.1m/s | -58.0°C | 3.0% | 71.3hPa | 0V | 00:00:00 | 00:00:00 | 00:00:00 | |
| AUTORXJP | 2026-09-03 00:22:44 | 43.40678 | 4.91439 | 118° | 24km/h | 18522m | 5.6m/s | -57.7°C | 3.1% | 73.2hPa | 0V | 00:00:00 | 00:00:00 | 00:00:00 | |
| AUTORXJP | 2026-09-03 00:22:13 | 43.40756 | 4.91199 | 94° | 15km/h | 18366m | 5.0m/s | -58.6°C | 3.3% | 75.1hPa | 0V | 00:00:00 | 00:00:00 | 00:00:00 | |
| AUTORXJP | 2026-09-03 00:21:42 | 43.40833 | 4.91103 | 169° | 16km/h | 18211m | 3.7m/s | -58.2°C | 3.7% | 77.0hPa | 0V | 00:00:00 | 00:00:00 | 00:00:00 | |
| AUTORXJP | 2026-09-03 00:21:11 | 43.40982 | 4.91026 | 156° | 24km/h | 18064m | 4.7m/s | -57.6°C | 4.1% | 78.9hPa | 0V | 00:00:00 | 00:00:00 | 00:00:00 | |
| AUTORXJP | 2026-09-03 00:20:40 | 43.41185 | 4.90855 | 139° | 40km/h | 17917m | 3.1m/s | -57.2°C | 4.3% | 80.8hPa | 0V | 00:00:00 | 00:00:00 | 00:00:00 | |
| AUTORXJP | 2026-09-03 00:20:09 | 43.41383 | 4.90536 | 126° | 47km/h | 17774m | 4.1m/s | -58.3°C | 4.4% | 82.7hPa | 0V | 00:00:00 | 00:00:00 | 00:00:00 | |
| AUTORXJP | 2026-09-03 00:19:38 | 43.41538 | 4.90154 | 113° | 44km/h | 17636m | 3.2m/s | -59.5°C | 4.4% | 84.5hPa | 0V | 00:00:00 | 00:00:00 | 00:00:00 | |
| AUTORXJP | 2026-09-03 00:19:07 | 43.41674 | 4.89763 | 119° | 38km/h | 17493m | 4.3m/s | -60.2°C | 4.7% | 86.5hPa | 0V | 00:00:00 | 00:00:00 | 00:00:00 | |
| AUTORXJP | 2026-09-03 00:18:36 | 43.41724 | 4.89357 | 80° | 31km/h | 17351m | 5.5m/s | -59.3°C | 5.0% | 88.6hPa | 0V | 00:00:00 | 00:00:00 | 00:00:00 | |
| AUTORXJP | 2026-09-03 00:18:05 | 43.41856 | 4.89049 | 137° | 38km/h | 17197m | 5.2m/s | -59.7°C | 5.3% | 90.9hPa | 0V | 00:00:00 | 00:00:00 | 00:00:00 | |
| AUTORXJP | 2026-09-03 00:17:33 | 43.42146 | 4.88721 | 134° | 53km/h | 17042m | 4.8m/s | -59.9°C | 5.8% | 93.2hPa | 0V | 00:00:00 | 00:00:00 | 00:00:00 | |
| AUTORXJP | 2026-09-03 00:17:02 | 43.42366 | 4.88299 | 121° | 47km/h | 16877m | 5.1m/s | -59.4°C | 6.4% | 95.8hPa | 0V | 00:00:00 | 00:00:00 | 00:00:00 | |
| AUTORXJP | 2026-09-03 00:16:31 | 43.42484 | 4.87859 | 96° | 38km/h | 16709m | 3.5m/s | -58.8°C | 7.0% | 98.4hPa | 0V | 00:00:00 | 00:00:00 | 00:00:00 | |
| AUTORXJP | 2026-09-03 00:16:00 | 43.42603 | 4.87443 | 128° | 46km/h | 16550m | 5.4m/s | -59.0°C | 7.7% | 101.0hPa | 0V | 00:00:00 | 00:00:00 | 00:00:00 | |
| AUTORXJP | 2026-09-03 00:15:29 | 43.42852 | 4.87074 | 142° | 49km/h | 16402m | 3.6m/s | -58.7°C | 8.4% | 103.5hPa | 0V | 00:00:00 | 00:00:00 | 00:00:00 | |
| AUTORXJP | 2026-09-03 00:14:58 | 43.43144 | 4.86611 | 125° | 60km/h | 16277m | 4.6m/s | -59.5°C | 8.7% | 105.6hPa | 0V | 00:00:00 | 00:00:00 | 00:00:00 | |
| AUTORXJP | 2026-09-03 00:14:27 | 43.43392 | 4.86039 | 112° | 55km/h | 16172m | 2.2m/s | -61.7°C | 9.0% | 107.4hPa | 0V | 00:00:00 | 00:00:00 | 00:00:00 | |
| AUTORXJP | 2026-09-03 00:13:56 | 43.43561 | 4.85568 | 122° | 47km/h | 16053m | 2.9m/s | -61.5°C | 9.6% | 109.6hPa | 0V | 00:00:00 | 00:00:00 | 00:00:00 | |
| AUTORXJP | 2026-09-03 00:13:25 | 43.43717 | 4.85208 | 121° | 42km/h | 15925m | 5.7m/s | -61.5°C | 10.2% | 111.9hPa | 0V | 00:00:00 | 00:00:00 | 00:00:00 | |
| AUTORXJP | 2026-09-03 00:12:54 | 43.43913 | 4.84883 | 128° | 38km/h | 15784m | 3.8m/s | -62.0°C | 10.8% | 114.5hPa | 0V | 00:00:00 | 00:00:00 | 00:00:00 | |
| AUTORXJP | 2026-09-03 00:12:23 | 43.44176 | 4.84535 | 128° | 44km/h | 15630m | 3.6m/s | -61.7°C | 11.7% | 117.5hPa | 0V | 00:00:00 | 00:00:00 | 00:00:00 | |
| AUTORXJP | 2026-09-03 00:11:51 | 43.44427 | 4.84201 | 139° | 47km/h | 15475m | 4.6m/s | -61.4°C | 12.5% | 120.5hPa | 0V | 00:00:00 | 00:00:00 | 00:00:00 | |
| AUTORXJP | 2026-09-03 00:11:20 | 43.44761 | 4.83775 | 134° | 60km/h | 15325m | 4.8m/s | -62.2°C | 13.4% | 123.5hPa | 0V | 00:00:00 | 00:00:00 | 00:00:00 | |
| AUTORXJP | 2026-09-03 00:10:50 | 43.45000 | 4.83239 | 115° | 64km/h | 15195m | 3.4m/s | -61.9°C | 14.6% | 126.2hPa | 0V | 00:00:00 | 00:00:00 | 00:00:00 | |
| AUTORXJP | 2026-09-03 00:10:18 | 43.45130 | 4.82607 | 102° | 66km/h | 15056m | 4.1m/s | -61.0°C | 16.4% | 129.1hPa | 0V | 00:00:00 | 00:00:00 | 00:00:00 | |
| AUTORXJP | 2026-09-03 00:09:47 | 43.45194 | 4.82005 | 95° | 58km/h | 14925m | 3.4m/s | -60.8°C | 18.6% | 131.9hPa | 0V | 00:00:00 | 00:00:00 | 00:00:00 | |
| AUTORXJP | 2026-09-03 00:09:16 | 43.45338 | 4.81527 | 117° | 51km/h | 14796m | 3.4m/s | -60.2°C | 21.4% | 134.7hPa | 0V | 00:00:00 | 00:00:00 | 00:00:00 | |
| AUTORXJP | 2026-09-03 00:08:45 | 43.45550 | 4.81159 | 139° | 62km/h | 14634m | 5.9m/s | -60.0°C | 25.2% | 138.3hPa | 0V | 00:00:00 | 00:00:00 | 00:00:00 | |
| AUTORXJP | 2026-09-03 00:08:14 | 43.45938 | 4.80746 | 142° | 68km/h | 14509m | 3.1m/s | -60.9°C | 28.6% | 141.1hPa | 0V | 00:00:00 | 00:00:00 | 00:00:00 | |
| AUTORXJP | 2026-09-03 00:07:43 | 43.46434 | 4.80139 | 133° | 93km/h | 14385m | 3.5m/s | -62.2°C | 32.2% | 144.1hPa | 0V | 00:00:00 | 00:00:00 | 00:00:00 | |
| AUTORXJP | 2026-09-03 00:07:12 | 43.46878 | 4.79468 | 132° | 80km/h | 14245m | 5.8m/s | -62.2°C | 35.9% | 147.4hPa | 0V | 00:00:00 | 00:00:00 | 00:00:00 | |
| AUTORXJP | 2026-09-03 00:06:41 | 43.47256 | 4.78878 | 135° | 64km/h | 14099m | 4.5m/s | -61.5°C | 39.5% | 150.9hPa | 0V | 00:00:00 | 00:00:00 | 00:00:00 | |
| AUTORXJP | 2026-09-03 00:06:09 | 43.47698 | 4.78344 | 140° | 82km/h | 13943m | 4.5m/s | -62.4°C | 42.1% | 154.8hPa | 0V | 00:00:00 | 00:00:00 | 00:00:00 | |
| AUTORXJP | 2026-09-03 00:05:38 | 43.48217 | 4.77816 | 142° | 77km/h | 13807m | 3.5m/s | -62.9°C | 44.8% | 158.3hPa | 0V | 00:00:00 | 00:00:00 | 00:00:00 | |
| AUTORXJP | 2026-09-03 00:05:07 | 43.48749 | 4.77287 | 147° | 91km/h | 13674m | 4.9m/s | -62.5°C | 47.8% | 161.8hPa | 0V | 00:00:00 | 00:00:00 | 00:00:00 | |
| AUTORXJP | 2026-09-03 00:04:37 | 43.49321 | 4.76790 | 152° | 84km/h | 13542m | 3.0m/s | -62.4°C | 51.0% | 165.4hPa | 0V | 00:00:00 | 00:00:00 | 00:00:00 | |
| AUTORXJP | 2026-09-03 00:04:06 | 43.49907 | 4.76320 | 147° | 78km/h | 13420m | 5.2m/s | -62.5°C | 53.6% | 168.8hPa | 0V | 00:00:00 | 00:00:00 | 00:00:00 | |
| AUTORXJP | 2026-09-03 00:03:34 | 43.50482 | 4.75867 | 153° | 86km/h | 13298m | 3.8m/s | -62.7°C | 54.9% | 172.2hPa | 0V | 00:00:00 | 00:00:00 | 00:00:00 | |
| AUTORXJP | 2026-09-03 00:02:20 | 43.52466 | 4.74558 | 159° | 108km/h | 12911m | 4.2m/s | -61.4°C | 53.6% | 183.5hPa | 0V | 00:00:00 | 00:00:00 | 00:00:00 | |
| AUTORXJP | 2026-09-03 00:01:42 | 43.53203 | 4.74139 | 156° | 100km/h | 12766m | 5.5m/s | -60.6°C | 52.0% | 187.9hPa | 0V | 00:00:00 | 00:00:00 | 00:00:00 | |
| AUTORXJP | 2026-09-03 00:01:02 | 43.53933 | 4.73753 | 160° | 106km/h | 12625m | 3.4m/s | -59.8°C | 50.8% | 192.3hPa | 0V | 00:00:00 | 00:00:00 | 00:00:00 | |
| AUTORXJP | 2026-09-03 00:00:32 | 43.54661 | 4.73350 | 159° | 102km/h | 12485m | 3.5m/s | -58.6°C | 50.8% | 196.7hPa | 0V | 00:00:00 | 00:00:00 | 00:00:00 | |
| AUTORXJP | 2026-09-02 23:59:57 | 43.55373 | 4.72933 | 156° | 99km/h | 12347m | 5.1m/s | -57.5°C | 53.5% | 201.1hPa | 0V | 00:00:00 | 00:00:00 | 00:00:00 | |
| AUTORXJP | 2026-09-02 23:59:26 | 43.56079 | 4.72512 | 154° | 97km/h | 12205m | 3.5m/s | -56.5°C | 56.3% | 205.8hPa | 0V | 00:00:00 | 00:00:00 | 00:00:00 | |
| AUTORXJP | 2026-09-02 23:58:54 | 43.56794 | 4.72083 | 153° | 95km/h | 12061m | 4.5m/s | -55.4°C | 58.0% | 210.6hPa | 0V | 00:00:00 | 00:00:00 | 00:00:00 | |
| AUTORXJP | 2026-09-02 23:58:23 | 43.57542 | 4.71603 | 153° | 100km/h | 11917m | 3.6m/s | -54.3°C | 58.9% | 215.3hPa | 0V | 00:00:00 | 00:00:00 | 00:00:00 | |
| AUTORXJP | 2026-09-02 23:57:52 | 43.58264 | 4.71104 | 150° | 95km/h | 11779m | 5.3m/s | -53.2°C | 58.4% | 220.1hPa | 0V | 00:00:00 | 00:00:00 | 00:00:00 | |
| AUTORXJP | 2026-09-02 23:57:21 | 43.58975 | 4.70609 | 156° | 100km/h | 11644m | 4.0m/s | -52.0°C | 59.4% | 224.8hPa | 0V | 00:00:00 | 00:00:00 | 00:00:00 | |
| AUTORXJP | 2026-09-02 23:56:50 | 43.59680 | 4.70136 | 152° | 97km/h | 11513m | 3.6m/s | -50.9°C | 59.8% | 229.4hPa | 0V | 00:00:00 | 00:00:00 | 00:00:00 | |
| AUTORXJP | 2026-09-02 23:56:19 | 43.60375 | 4.69671 | 152° | 102km/h | 11390m | 4.6m/s | -49.8°C | 59.9% | 233.8hPa | 0V | 00:00:00 | 00:00:00 | 00:00:00 | |
| AUTORXJP | 2026-09-02 23:55:48 | 43.61076 | 4.69208 | 155° | 99km/h | 11272m | 4.1m/s | -48.9°C | 61.1% | 238.2hPa | 0V | 00:00:00 | 00:00:00 | 00:00:00 | |
| AUTORXJP | 2026-09-02 23:55:17 | 43.61753 | 4.68760 | 155° | 95km/h | 11150m | 5.5m/s | -47.8°C | 62.0% | 242.7hPa | 0V | 00:00:00 | 00:00:00 | 00:00:00 | |
| AUTORXJP | 2026-09-02 23:54:46 | 43.62394 | 4.68346 | 156° | 89km/h | 11026m | 4.5m/s | -46.8°C | 60.6% | 247.4hPa | 0V | 00:00:00 | 00:00:00 | 00:00:00 | |
| AUTORXJP | 2026-09-02 23:54:15 | 43.63004 | 4.67939 | 151° | 86km/h | 10903m | 3.7m/s | -45.7°C | 58.4% | 252.0hPa | 0V | 00:00:00 | 00:00:00 | 00:00:00 | |
| AUTORXJP | 2026-09-02 23:53:44 | 43.63580 | 4.67508 | 150° | 84km/h | 10780m | 6.0m/s | -44.5°C | 56.1% | 256.8hPa | 0V | 00:00:00 | 00:00:00 | 00:00:00 | |
| AUTORXJP | 2026-09-02 23:53:12 | 43.64167 | 4.67080 | 148° | 80km/h | 10650m | 4.6m/s | -43.3°C | 55.6% | 261.9hPa | 0V | 00:00:00 | 00:00:00 | 00:00:00 | |
| AUTORXJP | 2026-09-02 23:52:41 | 43.64787 | 4.66646 | 150° | 82km/h | 10518m | 3.0m/s | -42.1°C | 58.5% | 267.0hPa | 0V | 00:00:00 | 00:00:00 | 00:00:00 | |
| AUTORXJP | 2026-09-02 23:52:10 | 43.65371 | 4.66218 | 156° | 77km/h | 10376m | 5.4m/s | -41.2°C | 54.7% | 272.8hPa | 0V | 00:00:00 | 00:00:00 | 00:00:00 | |
| AUTORXJP | 2026-09-02 23:51:39 | 43.65921 | 4.65845 | 149° | 75km/h | 10236m | 4.8m/s | -40.1°C | 54.4% | 278.5hPa | 0V | 00:00:00 | 00:00:00 | 00:00:00 | |
| AUTORXJP | 2026-09-02 23:51:08 | 43.66423 | 4.65448 | 147° | 68km/h | 10108m | 3.4m/s | -39.0°C | 51.9% | 283.8hPa | 0V | 00:00:00 | 00:00:00 | 00:00:00 | |
| AUTORXJP | 2026-09-02 23:50:37 | 43.66863 | 4.65027 | 141° | 66km/h | 9979m | 3.5m/s | -38.1°C | 57.2% | 289.2hPa | 0V | 00:00:00 | 00:00:00 | 00:00:00 | |
| AUTORXJP | 2026-09-02 23:50:06 | 43.67267 | 4.64558 | 145° | 64km/h | 9852m | 3.7m/s | -37.1°C | 52.7% | 294.7hPa | 0V | 00:00:00 | 00:00:00 | 00:00:00 | |
| AUTORXJP | 2026-09-02 23:49:35 | 43.67640 | 4.64067 | 136° | 58km/h | 9716m | 3.7m/s | -36.1°C | 43.5% | 300.6hPa | 0V | 00:00:00 | 00:00:00 | 00:00:00 | |
| AUTORXJP | 2026-09-02 23:49:04 | 43.67979 | 4.63589 | 137° | 62km/h | 9583m | 5.0m/s | -34.9°C | 36.2% | 306.4hPa | 0V | 00:00:00 | 00:00:00 | 00:00:00 | |
| AUTORXJP | 2026-09-02 23:48:33 | 43.68332 | 4.63158 | 138° | 60km/h | 9435m | 4.5m/s | -33.5°C | 32.8% | 313.0hPa | 0V | 00:00:00 | 00:00:00 | 00:00:00 | |
| AUTORXJP | 2026-09-02 23:48:02 | 43.68709 | 4.62739 | 143° | 60km/h | 9287m | 5.1m/s | -32.1°C | 29.9% | 319.7hPa | 0V | 00:00:00 | 00:00:00 | 00:00:00 | |
| AUTORXJP | 2026-09-02 23:47:31 | 43.69117 | 4.62319 | 144° | 64km/h | 9153m | 4.8m/s | -31.0°C | 30.8% | 326.0hPa | 0V | 00:00:00 | 00:00:00 | 00:00:00 | |
| AUTORXJP | 2026-09-02 23:46:59 | 43.69521 | 4.61880 | 140° | 64km/h | 9019m | 4.9m/s | -29.8°C | 29.9% | 332.2hPa | 0V | 00:00:00 | 00:00:00 | 00:00:00 | |
| AUTORXJP | 2026-09-02 23:46:28 | 43.69916 | 4.61416 | 138° | 66km/h | 8885m | 4.5m/s | -28.5°C | 29.9% | 338.5hPa | 0V | 00:00:00 | 00:00:00 | 00:00:00 | |
| AUTORXJP | 2026-09-02 23:45:57 | 43.70335 | 4.60896 | 135° | 71km/h | 8751m | 5.0m/s | -27.3°C | 30.3% | 345.0hPa | 0V | 00:00:00 | 00:00:00 | 00:00:00 | |
| AUTORXJP | 2026-09-02 23:45:26 | 43.70729 | 4.60390 | 138° | 64km/h | 8626m | 3.8m/s | -26.1°C | 29.3% | 351.2hPa | 0V | 00:00:00 | 00:00:00 | 00:00:00 | |
| AUTORXJP | 2026-09-02 23:44:55 | 43.71108 | 4.59903 | 137° | 66km/h | 8496m | 3.5m/s | -25.0°C | 29.7% | 357.6hPa | 0V | 00:00:00 | 00:00:00 | 00:00:00 | |
| AUTORXJP | 2026-09-02 23:44:24 | 43.71467 | 4.59443 | 139° | 62km/h | 8372m | 3.7m/s | -23.9°C | 30.0% | 363.7hPa | 0V | 00:00:00 | 00:00:00 | 00:00:00 | |
| AUTORXJP | 2026-09-02 23:43:53 | 43.71813 | 4.59009 | 141° | 53km/h | 8248m | 2.5m/s | -22.9°C | 29.1% | 369.9hPa | 0V | 00:00:00 | 00:00:00 | 00:00:00 | |
| AUTORXJP | 2026-09-02 23:43:22 | 43.72145 | 4.58578 | 139° | 53km/h | 8126m | 2.8m/s | -22.1°C | 30.8% | 376.2hPa | 0V | 00:00:00 | 00:00:00 | 00:00:00 | |
| AUTORXJP | 2026-09-02 23:42:51 | 43.72440 | 4.58192 | 136° | 51km/h | 8003m | 6.0m/s | -21.3°C | 32.2% | 382.6hPa | 0V | 00:00:00 | 00:00:00 | 00:00:00 | |
| AUTORXJP | 2026-09-02 23:42:20 | 43.72742 | 4.57789 | 145° | 57km/h | 7873m | 4.7m/s | -20.6°C | 32.3% | 389.3hPa | 0V | 00:00:00 | 00:00:00 | 00:00:00 | |
| AUTORXJP | 2026-09-02 23:41:49 | 43.72997 | 4.57329 | 124° | 53km/h | 7705m | 6.8m/s | -19.0°C | 29.4% | 398.4hPa | 0V | 00:00:00 | 00:00:00 | 00:00:00 | |
| AUTORXJP | 2026-09-02 23:41:18 | 43.73269 | 4.56840 | 123° | 60km/h | 7541m | 5.0m/s | -17.5°C | 29.3% | 407.3hPa | 0V | 00:00:00 | 00:00:00 | 00:00:00 | |
| AUTORXJP | 2026-09-02 23:40:46 | 43.73564 | 4.56316 | 133° | 68km/h | 7365m | 2.7m/s | -15.9°C | 28.9% | 417.1hPa | 0V | 00:00:00 | 00:00:00 | 00:00:00 | |
| AUTORXJP | 2026-09-02 23:40:15 | 43.73924 | 4.55835 | 133° | 60km/h | 7242m | 3.1m/s | -15.1°C | 29.4% | 424.0hPa | 0V | 00:00:00 | 00:00:00 | 00:00:00 | |
| AUTORXJP | 2026-09-02 23:39:44 | 43.74300 | 4.55383 | 138° | 58km/h | 7110m | 4.5m/s | -14.1°C | 28.5% | 431.5hPa | 0V | 00:00:00 | 00:00:00 | 00:00:00 | |
| AUTORXJP | 2026-09-02 23:39:13 | 43.74662 | 4.54977 | 136° | 60km/h | 6970m | 3.8m/s | -13.1°C | 32.9% | 439.4hPa | 0V | 00:00:00 | 00:00:00 | 00:00:00 | |
| AUTORXJP | 2026-09-02 23:38:42 | 43.75012 | 4.54523 | 133° | 60km/h | 6828m | 3.9m/s | -12.1°C | 35.6% | 447.6hPa | 0V | 00:00:00 | 00:00:00 | 00:00:00 | |
| AUTORXJP | 2026-09-02 23:38:11 | 43.75302 | 4.54040 | 129° | 53km/h | 6646m | 4.6m/s | -10.7°C | 39.0% | 458.6hPa | 0V | 00:00:00 | 00:00:00 | 00:00:00 | |
| AUTORXJP | 2026-09-02 23:37:40 | 43.75579 | 4.53587 | 138° | 53km/h | 6511m | 4.7m/s | -9.6°C | 36.0% | 466.8hPa | 0V | 00:00:00 | 00:00:00 | 00:00:00 | |
| AUTORXJP | 2026-09-02 23:36:38 | 43.76231 | 4.52635 | 135° | 60km/h | 6142m | 5.4m/s | -8.3°C | 45.8% | 489.5hPa | 0V | 00:00:00 | 00:00:00 | 00:00:00 | |
| AUTORXJP | 2026-09-02 23:36:07 | 43.76496 | 4.52252 | 134° | 55km/h | 5999m | 4.5m/s | -7.3°C | 43.8% | 498.7hPa | 0V | 00:00:00 | 00:00:00 | 00:00:00 |